createdAt,value
2023-03-06T00:03:34.181Z,99.90
2023-03-06T00:07:41.821Z,99.90
2023-03-06T00:11:48.519Z,99.90
2023-03-06T00:15:58.625Z,99.90
2023-03-06T00:20:07.164Z,99.90
2023-03-06T00:24:13.905Z,99.90
2023-03-06T00:28:20.587Z,99.90
2023-03-06T00:32:28.281Z,99.90
2023-03-06T00:36:35.111Z,99.90
2023-03-06T00:40:41.802Z,99.90
2023-03-06T00:44:48.495Z,99.90
2023-03-06T00:48:55.153Z,99.90
2023-03-06T00:53:01.825Z,99.90
2023-03-06T00:57:08.934Z,99.90
2023-03-06T01:01:15.717Z,99.90
2023-03-06T01:05:22.589Z,99.90
2023-03-06T01:09:29.297Z,99.90
2023-03-06T01:13:35.952Z,99.90
2023-03-06T01:17:42.776Z,99.90
2023-03-06T01:21:49.496Z,99.90
2023-03-06T01:25:56.437Z,99.90
2023-03-06T01:30:04.979Z,99.90
2023-03-06T01:34:11.709Z,99.90
2023-03-06T01:38:18.405Z,99.90
2023-03-06T01:42:25.699Z,99.90
2023-03-06T01:46:41.994Z,99.90
2023-03-06T01:50:50.217Z,99.90
2023-03-06T01:55:08.569Z,99.90
2023-03-06T01:59:16.096Z,99.90
2023-03-06T02:03:25.068Z,99.90
2023-03-06T02:07:32.776Z,99.90
2023-03-06T02:11:43.825Z,99.90
2023-03-06T02:15:50.599Z,99.90
2023-03-06T02:20:28.871Z,99.90
2023-03-06T02:24:48.307Z,99.90
2023-03-06T02:28:57.300Z,99.90
2023-03-06T02:33:05.155Z,99.90
2023-03-06T02:37:11.831Z,99.90
2023-03-06T02:41:18.654Z,99.90
2023-03-06T02:45:36.163Z,99.90
2023-03-06T02:49:42.863Z,99.90
2023-03-06T02:53:49.796Z,99.90
2023-03-06T02:57:56.484Z,99.90
2023-03-06T03:02:03.242Z,99.90
2023-03-06T03:06:10.070Z,99.90
2023-03-06T03:10:16.990Z,99.90
2023-03-06T03:14:24.639Z,99.90
2023-03-06T03:18:31.533Z,99.90
2023-03-06T03:22:38.479Z,99.90
2023-03-06T03:26:45.145Z,99.90
2023-03-06T03:30:51.919Z,99.90
2023-03-06T03:34:58.645Z,99.90
2023-03-06T03:39:05.812Z,99.90
2023-03-06T03:43:12.482Z,99.90
2023-03-06T03:47:19.167Z,99.90
2023-03-06T03:51:26.100Z,99.90
2023-03-06T03:55:32.799Z,99.90
2023-03-06T03:59:39.470Z,99.90
2023-03-06T04:03:46.289Z,99.90
2023-03-06T04:07:52.980Z,99.90
2023-03-06T04:11:59.669Z,99.90
2023-03-06T04:16:06.961Z,99.90
2023-03-06T04:20:14.540Z,99.90
2023-03-06T04:24:21.199Z,99.90
2023-03-06T04:28:27.962Z,99.90
2023-03-06T04:32:34.656Z,99.90
2023-03-06T04:36:45.242Z,99.90
2023-03-06T04:40:51.908Z,99.90
2023-03-06T04:44:58.852Z,99.90
2023-03-06T04:49:05.583Z,99.90
2023-03-06T04:53:14.472Z,99.90
2023-03-06T04:57:22.070Z,99.90
2023-03-06T05:01:31.517Z,99.90
2023-03-06T05:05:38.196Z,99.90
2023-03-06T05:09:44.856Z,99.90
2023-03-06T05:13:51.651Z,99.90
2023-03-06T05:17:58.373Z,99.90
2023-03-06T05:22:05.395Z,99.90
2023-03-06T05:26:13.986Z,99.90
2023-03-06T05:30:23.046Z,99.90
2023-03-06T05:34:29.794Z,99.90
2023-03-06T05:38:36.548Z,99.90
2023-03-06T05:42:43.359Z,99.90
2023-03-06T05:46:50.768Z,99.90
2023-03-06T05:50:58.344Z,99.90
2023-03-06T05:55:05.456Z,99.90
2023-03-06T05:59:12.136Z,99.90
2023-03-06T06:03:19.722Z,99.90
2023-03-06T06:07:26.387Z,99.90
2023-03-06T06:11:33.040Z,99.90
2023-03-06T06:15:39.742Z,99.90
2023-03-06T06:19:46.442Z,99.90
2023-03-06T06:23:53.119Z,99.90
2023-03-06T06:27:59.803Z,99.90
2023-03-06T06:32:06.752Z,99.90
2023-03-06T06:36:19.559Z,99.90
2023-03-06T06:40:27.598Z,99.90
2023-03-06T06:44:34.323Z,99.90
2023-03-06T06:48:41.137Z,99.90
2023-03-06T06:52:47.898Z,99.90
2023-03-06T06:56:54.615Z,99.90
2023-03-06T07:01:09.010Z,99.90
2023-03-06T07:05:16.086Z,99.90
2023-03-06T07:09:23.139Z,99.90
2023-03-06T07:13:29.843Z,99.90
2023-03-06T07:17:36.537Z,99.90
2023-03-06T07:21:43.230Z,99.90
2023-03-06T07:25:50.271Z,99.90
2023-03-06T07:29:57.001Z,99.90
2023-03-06T07:34:05.038Z,99.90
2023-03-06T07:38:12.305Z,99.90
2023-03-06T07:42:18.982Z,99.90
2023-03-06T07:46:25.738Z,99.90
2023-03-06T07:50:33.143Z,99.90
2023-03-06T07:54:39.819Z,99.90
2023-03-06T07:58:47.768Z,99.90
2023-03-06T08:02:54.569Z,99.90
2023-03-06T08:07:01.311Z,99.90
2023-03-06T08:11:09.873Z,99.90
2023-03-06T08:15:16.648Z,99.90
2023-03-06T08:19:23.512Z,99.90
2023-03-06T08:23:30.665Z,99.90
2023-03-06T08:27:37.370Z,99.90
2023-03-06T08:31:46.064Z,99.90
2023-03-06T08:35:52.987Z,99.90
2023-03-06T08:39:59.725Z,99.90
2023-03-06T08:44:06.856Z,99.90
2023-03-06T08:48:13.551Z,99.90
2023-03-06T08:52:20.274Z,99.90
2023-03-06T08:56:29.463Z,99.90
2023-03-06T09:00:38.488Z,99.90
2023-03-06T09:04:45.177Z,99.90
2023-03-06T09:08:52.859Z,99.90
2023-03-06T09:12:59.775Z,99.90
2023-03-06T09:17:06.458Z,99.90
2023-03-06T09:21:13.187Z,99.90
2023-03-06T09:25:22.462Z,99.90
2023-03-06T09:29:29.190Z,99.90
2023-03-06T09:33:36.052Z,99.90
2023-03-06T09:37:42.750Z,99.90
2023-03-06T09:41:50.364Z,99.90
2023-03-06T09:45:58.627Z,99.90
2023-03-06T09:50:20.155Z,99.90
2023-03-06T09:55:05.435Z,99.90
2023-03-06T09:59:17.294Z,99.90
2023-03-06T10:04:01.439Z,99.90
2023-03-06T10:08:23.676Z,99.90
2023-03-06T10:12:39.994Z,99.90
2023-03-06T10:16:46.906Z,99.90
2023-03-06T10:21:18.791Z,99.90
2023-03-06T10:25:35.467Z,99.90
2023-03-06T10:30:03.560Z,99.90
2023-03-06T10:34:24.268Z,99.90
2023-03-06T10:38:30.911Z,99.90
2023-03-06T10:42:37.583Z,99.90
2023-03-06T10:46:46.947Z,99.90
2023-03-06T10:51:17.795Z,99.90
2023-03-06T10:55:27.418Z,99.90
2023-03-06T10:59:34.094Z,99.90
2023-03-06T11:03:41.056Z,99.90
2023-03-06T11:07:59.554Z,99.90
2023-03-06T11:12:23.319Z,99.90
2023-03-06T11:16:30.711Z,99.90
2023-03-06T11:20:52.053Z,99.90
2023-03-06T11:24:59.666Z,99.90
2023-03-06T11:29:12.370Z,99.90
2023-03-06T11:33:46.411Z,99.90
2023-03-06T11:37:58.408Z,99.90
2023-03-06T11:42:29.257Z,99.90
2023-03-06T11:46:47.118Z,99.90
2023-03-06T11:51:02.176Z,99.90
2023-03-06T11:55:16.272Z,99.90
2023-03-06T11:59:34.931Z,99.90
2023-03-06T12:04:12.460Z,99.70
2023-03-06T12:08:46.347Z,99.10
2023-03-06T12:13:34.680Z,99.40
2023-03-06T12:18:09.159Z,99.50
2023-03-06T12:22:57.495Z,98.20
2023-03-06T12:27:22.997Z,96.80
2023-03-06T12:31:36.497Z,96.70
2023-03-06T12:36:04.550Z,96.00
2023-03-06T12:40:17.074Z,96.20
2023-03-06T12:45:05.196Z,96.00
2023-03-06T12:49:31.968Z,97.40
2023-03-06T12:53:40.965Z,97.00
2023-03-06T12:57:49.706Z,95.80
2023-03-06T13:02:10.886Z,96.00
2023-03-06T13:06:39.148Z,96.20
2023-03-06T13:11:13.489Z,95.70
2023-03-06T13:15:37.514Z,95.20
2023-03-06T13:19:44.223Z,95.80
2023-03-06T13:23:52.292Z,94.80
2023-03-06T13:28:01.110Z,94.20
2023-03-06T13:32:18.559Z,94.10
2023-03-06T13:36:29.672Z,94.50
2023-03-06T13:40:36.380Z,95.20
2023-03-06T13:44:44.779Z,95.60
2023-03-06T13:49:10.545Z,95.80
2023-03-06T13:53:48.387Z,95.70
2023-03-06T13:58:13.967Z,94.60
2023-03-06T14:02:48.872Z,95.20
2023-03-06T14:07:07.887Z,96.10
2023-03-06T14:11:21.349Z,95.30
2023-03-06T14:15:53.102Z,94.60
2023-03-06T14:20:20.711Z,94.80
2023-03-06T14:24:37.554Z,95.20
2023-03-06T14:28:52.063Z,95.30
2023-03-06T14:32:59.267Z,95.90
2023-03-06T14:37:17.935Z,96.30
2023-03-06T14:41:33.361Z,96.90
2023-03-06T14:45:51.294Z,97.40
2023-03-06T14:50:24.503Z,98.60
2023-03-06T14:54:34.325Z,98.60
2023-03-06T14:58:46.247Z,99.40
2023-03-06T15:02:55.286Z,99.80
2023-03-06T15:07:05.913Z,99.90
2023-03-06T15:11:12.800Z,99.90
2023-03-06T15:15:27.094Z,99.90
2023-03-06T15:19:40.588Z,99.90
2023-03-06T15:23:52.555Z,99.90
2023-03-06T15:28:03.950Z,99.90
2023-03-06T15:32:36.817Z,99.90
2023-03-06T15:36:49.057Z,99.90
2023-03-06T15:41:01.191Z,99.90
2023-03-06T15:45:20.092Z,99.90
2023-03-06T15:49:26.828Z,99.90
2023-03-06T15:53:33.482Z,99.90
2023-03-06T15:57:52.945Z,99.90
2023-03-06T16:02:11.650Z,99.90
2023-03-06T16:06:20.621Z,99.90
2023-03-06T16:10:29.762Z,99.90
2023-03-06T16:14:36.468Z,99.90
2023-03-06T16:18:43.165Z,99.90
2023-03-06T16:22:50.230Z,99.90
2023-03-06T16:27:00.548Z,99.90
2023-03-06T16:31:07.285Z,99.90
2023-03-06T16:35:14.872Z,99.90
2023-03-06T16:39:23.561Z,99.90
2023-03-06T16:43:30.243Z,99.90
2023-03-06T16:47:37.413Z,99.90
2023-03-06T16:51:44.392Z,99.90
2023-03-06T16:55:51.084Z,99.90
2023-03-06T16:59:57.778Z,99.90
2023-03-06T17:04:04.593Z,99.90
2023-03-06T17:08:11.294Z,99.90
2023-03-06T17:12:18.074Z,99.90
2023-03-06T17:16:24.839Z,99.90
2023-03-06T17:20:31.550Z,99.90
2023-03-06T17:24:38.269Z,99.90
2023-03-06T17:28:46.352Z,99.90
2023-03-06T17:32:53.651Z,99.90
2023-03-06T17:37:01.425Z,99.90
2023-03-06T17:41:10.365Z,99.90
2023-03-06T17:45:17.234Z,99.90
2023-03-06T17:49:25.180Z,99.90
2023-03-06T17:53:32.143Z,99.90
2023-03-06T17:57:39.160Z,99.90
2023-03-06T18:01:46.104Z,99.90
2023-03-06T18:06:03.359Z,99.90
2023-03-06T18:10:10.451Z,99.90
2023-03-06T18:14:17.127Z,99.90
2023-03-06T18:18:24.453Z,99.90
2023-03-06T18:22:31.296Z,99.90
2023-03-06T18:26:38.193Z,99.90
2023-03-06T18:30:44.948Z,99.90
2023-03-06T18:34:51.701Z,99.90
2023-03-06T18:38:59.379Z,99.90
2023-03-06T18:43:06.097Z,99.90
2023-03-06T18:47:12.773Z,99.90
2023-03-06T18:51:20.139Z,99.90
2023-03-06T18:55:26.969Z,99.90
2023-03-06T18:59:33.694Z,99.90
2023-03-06T19:03:40.653Z,99.90
2023-03-06T19:07:47.340Z,99.90
2023-03-06T19:11:54.948Z,99.90
2023-03-06T19:16:02.166Z,99.90
2023-03-06T19:20:09.667Z,99.90
2023-03-06T19:24:16.362Z,99.90
2023-03-06T19:28:23.076Z,99.90
2023-03-06T19:32:29.813Z,99.90
2023-03-06T19:36:38.742Z,99.90
2023-03-06T19:40:50.001Z,99.90
2023-03-06T19:44:56.703Z,99.90
2023-03-06T19:49:09.594Z,99.90
2023-03-06T19:53:16.827Z,99.90
2023-03-06T19:57:23.513Z,99.90
2023-03-06T20:01:30.384Z,99.90
2023-03-06T20:05:37.131Z,99.90
2023-03-06T20:09:43.855Z,99.90
2023-03-06T20:13:51.262Z,99.90
2023-03-06T20:17:58.002Z,99.90
2023-03-06T20:22:04.785Z,99.90
2023-03-06T20:26:13.298Z,99.90
2023-03-06T20:30:20.030Z,99.90
2023-03-06T20:34:26.931Z,99.90
2023-03-06T20:38:33.931Z,99.90
2023-03-06T20:42:40.615Z,99.90
2023-03-06T20:46:47.573Z,99.90
2023-03-06T20:51:24.879Z,99.90
2023-03-06T20:55:31.531Z,99.90
2023-03-06T20:59:38.379Z,99.90
2023-03-06T21:03:45.076Z,99.90
2023-03-06T21:07:52.680Z,99.90
2023-03-06T21:11:59.835Z,99.90
2023-03-06T21:16:09.939Z,99.90
2023-03-06T21:20:16.812Z,99.90
2023-03-06T21:24:23.515Z,99.90
2023-03-06T21:28:30.930Z,99.90
2023-03-06T21:32:37.684Z,99.90
2023-03-06T21:36:44.560Z,99.90
2023-03-06T21:40:51.470Z,99.90
2023-03-06T21:44:59.793Z,99.90
2023-03-06T21:49:06.625Z,99.90
2023-03-06T21:53:13.302Z,99.90
2023-03-06T21:57:19.991Z,99.90
2023-03-06T22:01:28.861Z,99.90
2023-03-06T22:05:35.641Z,99.90
2023-03-06T22:09:42.362Z,99.90
2023-03-06T22:13:49.503Z,99.90
2023-03-06T22:17:56.245Z,99.90
2023-03-06T22:22:03.764Z,99.90
2023-03-06T22:26:14.301Z,99.90
2023-03-06T22:30:21.080Z,99.90
2023-03-06T22:34:27.752Z,99.90
2023-03-06T22:38:37.633Z,99.90
2023-03-06T22:42:44.324Z,99.90
2023-03-06T22:46:51.775Z,99.90
2023-03-06T22:51:06.320Z,99.90
2023-03-06T22:55:12.972Z,99.90
2023-03-06T22:59:19.625Z,99.90
2023-03-06T23:03:26.293Z,99.90
2023-03-06T23:07:32.960Z,99.90
2023-03-06T23:11:39.627Z,99.90
2023-03-06T23:15:46.316Z,99.90
2023-03-06T23:19:53.221Z,99.90
2023-03-06T23:24:00.163Z,99.90
2023-03-06T23:28:07.622Z,99.90
2023-03-06T23:32:14.303Z,99.90
2023-03-06T23:36:21.101Z,99.90
2023-03-06T23:40:28.297Z,99.90
2023-03-06T23:44:35.705Z,99.90
2023-03-06T23:48:43.339Z,99.90
2023-03-06T23:52:53.765Z,99.90
2023-03-06T23:57:00.432Z,99.90
